createdAt,value
2022-09-09T00:00:50.286Z,63.76
2022-09-09T00:03:27.749Z,64.82
2022-09-09T00:06:10.266Z,63.13
2022-09-09T00:09:26.597Z,64.75
2022-09-09T00:11:59.636Z,62.64
2022-09-09T00:15:03.786Z,62.00
2022-09-09T00:17:42.573Z,62.22
2022-09-09T00:20:17.235Z,63.45
2022-09-09T00:22:54.836Z,65.48
2022-09-09T00:25:29.236Z,63.77
2022-09-09T00:27:55.976Z,62.79
2022-09-09T00:30:27.059Z,62.79
2022-09-09T00:33:03.978Z,61.99
2022-09-09T00:35:35.268Z,63.41
2022-09-09T00:38:11.826Z,63.64
2022-09-09T00:41:04.516Z,63.80
2022-09-09T00:43:39.779Z,63.58
2022-09-09T00:46:07.393Z,62.45
2022-09-09T00:48:55.346Z,63.60
2022-09-09T00:51:34.882Z,62.73
2022-09-09T00:54:16.356Z,62.81
2022-09-09T00:56:53.443Z,62.29
2022-09-09T00:59:38.385Z,63.39
2022-09-09T01:02:23.434Z,62.96
2022-09-09T01:04:50.226Z,63.15
2022-09-09T01:07:20.355Z,62.49
2022-09-09T01:09:55.971Z,62.86
2022-09-09T01:12:39.796Z,62.27
2022-09-09T01:15:13.209Z,61.29
2022-09-09T01:17:50.439Z,62.26
2022-09-09T01:20:24.376Z,62.31
2022-09-09T01:23:04.650Z,62.00
2022-09-09T01:25:49.976Z,61.99
2022-09-09T01:28:26.370Z,63.20
2022-09-09T01:30:54.438Z,63.19
2022-09-09T01:33:21.235Z,63.07
2022-09-09T01:35:56.836Z,62.63
2022-09-09T01:38:25.602Z,63.09
2022-09-09T01:40:53.979Z,64.20
2022-09-09T01:43:25.166Z,64.26
2022-09-09T01:45:55.894Z,63.26
2022-09-09T01:48:24.658Z,62.57
2022-09-09T01:50:51.772Z,63.18
2022-09-09T01:53:20.765Z,63.06
2022-09-09T01:55:58.950Z,62.66
2022-09-09T01:58:44.163Z,62.60
2022-09-09T02:01:37.641Z,62.26
2022-09-09T02:04:17.158Z,61.34
2022-09-09T02:06:47.067Z,61.49
2022-09-09T02:09:15.787Z,61.97
2022-09-09T02:11:45.559Z,63.82
2022-09-09T02:14:26.296Z,63.16
2022-09-09T02:17:00.805Z,62.47
2022-09-09T02:19:33.163Z,62.67
2022-09-09T02:22:02.884Z,61.72
2022-09-09T02:24:34.562Z,62.56
2022-09-09T02:27:05.124Z,62.55
2022-09-09T02:29:36.251Z,62.33
2022-09-09T02:32:07.668Z,61.62
2022-09-09T02:34:38.667Z,62.10
2022-09-09T02:37:09.283Z,62.01
2022-09-09T02:39:36.063Z,62.26
2022-09-09T02:42:05.008Z,62.57
2022-09-09T02:44:31.930Z,62.43
2022-09-09T02:47:16.891Z,61.81
2022-09-09T02:50:02.997Z,61.18
2022-09-09T02:53:11.581Z,61.18
2022-09-09T02:55:49.477Z,61.34
2022-09-09T02:58:19.512Z,61.55
2022-09-09T03:00:51.122Z,61.86
2022-09-09T03:03:20.730Z,60.97
2022-09-09T03:05:47.476Z,61.34
2022-09-09T03:08:14.278Z,61.06
2022-09-09T03:10:41.001Z,61.21
2022-09-09T03:13:08.036Z,61.34
2022-09-09T03:15:35.123Z,61.11
2022-09-09T03:18:02.506Z,60.38
2022-09-09T03:20:30.724Z,61.03
2022-09-09T03:22:58.446Z,61.14
2022-09-09T03:25:25.820Z,60.29
2022-09-09T03:27:55.397Z,61.13
2022-09-09T03:30:24.197Z,61.54
2022-09-09T03:32:51.443Z,61.78
2022-09-09T03:35:18.173Z,62.27
2022-09-09T03:37:45.466Z,62.84
2022-09-09T03:40:12.981Z,62.75
2022-09-09T03:42:40.616Z,62.79
2022-09-09T03:45:10.599Z,62.26
2022-09-09T03:47:38.164Z,62.00
2022-09-09T03:50:09.513Z,61.81
2022-09-09T03:52:41.890Z,61.84
2022-09-09T03:55:09.325Z,61.18
2022-09-09T03:57:37.012Z,60.74
2022-09-09T04:00:06.250Z,60.79
2022-09-09T04:02:32.984Z,61.37
2022-09-09T04:05:00.838Z,60.83
2022-09-09T04:07:29.613Z,60.86
2022-09-09T04:09:56.469Z,62.57
2022-09-09T04:12:23.547Z,61.96
2022-09-09T04:14:50.276Z,62.88
2022-09-09T04:17:18.456Z,62.59
2022-09-09T04:19:45.156Z,62.32
2022-09-09T04:22:11.883Z,63.07
2022-09-09T04:24:38.599Z,63.27
2022-09-09T04:27:05.375Z,63.44
2022-09-09T04:29:32.246Z,62.79
2022-09-09T04:31:58.999Z,62.58
2022-09-09T04:34:26.779Z,63.94
2022-09-09T04:36:53.613Z,64.87
2022-09-09T04:39:20.786Z,65.21
2022-09-09T04:41:48.325Z,65.47
2022-09-09T04:44:15.406Z,65.16
2022-09-09T04:46:42.566Z,63.76
2022-09-09T04:49:13.119Z,64.39
2022-09-09T04:51:41.786Z,64.25
2022-09-09T04:54:08.471Z,64.40
2022-09-09T04:56:35.286Z,63.66
2022-09-09T04:59:04.041Z,62.88
2022-09-09T05:01:30.848Z,64.44
2022-09-09T05:03:57.578Z,63.44
2022-09-09T05:06:24.971Z,63.31
2022-09-09T05:08:52.051Z,63.16
2022-09-09T05:11:20.709Z,63.64
2022-09-09T05:13:48.165Z,63.97
2022-09-09T05:16:15.993Z,63.61
2022-09-09T05:18:47.144Z,63.57
2022-09-09T05:21:15.837Z,63.62
2022-09-09T05:23:42.897Z,64.83
2022-09-09T05:26:17.420Z,65.29
2022-09-09T05:28:45.762Z,65.33
2022-09-09T05:31:14.537Z,65.40
2022-09-09T05:33:44.126Z,66.57
2022-09-09T05:36:16.508Z,64.92
2022-09-09T05:38:44.450Z,64.61
2022-09-09T05:41:12.456Z,64.11
2022-09-09T05:43:39.510Z,64.76
2022-09-09T05:46:15.335Z,65.52
2022-09-09T05:48:44.488Z,63.92
2022-09-09T05:51:14.016Z,65.17
2022-09-09T05:53:40.836Z,64.71
2022-09-09T05:56:11.797Z,64.72
2022-09-09T05:58:39.697Z,62.67
2022-09-09T06:01:12.234Z,62.66
2022-09-09T06:03:41.420Z,64.33
2022-09-09T06:06:10.846Z,63.39
2022-09-09T06:08:40.790Z,61.85
2022-09-09T06:11:16.681Z,62.24
2022-09-09T06:13:44.063Z,61.93
2022-09-09T06:16:16.117Z,62.72
2022-09-09T06:18:43.379Z,62.95
2022-09-09T06:21:18.239Z,62.14
2022-09-09T06:23:45.633Z,63.08
2022-09-09T06:26:14.826Z,61.75
2022-09-09T06:28:43.312Z,61.66
2022-09-09T06:31:12.727Z,61.03
2022-09-09T06:33:45.506Z,61.57
2022-09-09T06:36:15.987Z,63.14
2022-09-09T06:38:43.739Z,62.52
2022-09-09T06:41:12.340Z,61.13
2022-09-09T06:43:39.355Z,61.12
2022-09-09T06:46:10.643Z,62.18
2022-09-09T06:48:37.810Z,61.08
2022-09-09T06:51:12.296Z,61.55
2022-09-09T06:53:42.937Z,61.75
2022-09-09T06:56:24.239Z,60.48
2022-09-09T06:58:53.106Z,61.46
2022-09-09T07:01:36.538Z,61.26
2022-09-09T07:04:08.797Z,60.62
2022-09-09T07:06:45.158Z,59.91
2022-09-09T07:09:14.370Z,60.56
2022-09-09T07:11:45.958Z,60.30
2022-09-09T07:14:15.144Z,61.32
2022-09-09T07:16:43.377Z,61.61
2022-09-09T07:19:11.764Z,61.69
2022-09-09T07:21:38.608Z,60.64
2022-09-09T07:24:08.483Z,61.53
2022-09-09T07:26:35.606Z,61.72
2022-09-09T07:29:02.370Z,61.49
2022-09-09T07:31:32.394Z,61.67
2022-09-09T07:34:00.979Z,60.35
2022-09-09T07:36:33.887Z,59.90
2022-09-09T07:39:07.106Z,58.38
2022-09-09T07:41:39.733Z,59.37
2022-09-09T07:44:36.015Z,59.26
2022-09-09T07:47:03.946Z,58.37
2022-09-09T07:49:32.910Z,58.36
2022-09-09T07:52:00.258Z,58.64
2022-09-09T07:54:27.427Z,57.00
2022-09-09T07:56:54.296Z,57.98
2022-09-09T07:59:21.346Z,56.14
2022-09-09T08:01:57.001Z,55.22
2022-09-09T08:04:26.386Z,55.49
2022-09-09T08:06:54.205Z,55.16
2022-09-09T08:09:21.911Z,56.74
2022-09-09T08:11:49.126Z,57.79
2022-09-09T08:14:16.207Z,56.69
2022-09-09T08:16:48.347Z,54.67
2022-09-09T08:19:16.382Z,54.87
2022-09-09T08:21:44.903Z,54.88
2022-09-09T08:24:13.310Z,53.05
2022-09-09T08:26:45.714Z,52.36
2022-09-09T08:29:14.921Z,52.13
2022-09-09T08:31:45.305Z,52.01
2022-09-09T08:34:16.955Z,53.16
2022-09-09T08:36:46.406Z,51.55
2022-09-09T08:39:16.936Z,51.17
2022-09-09T08:41:52.368Z,50.18
2022-09-09T08:45:02.700Z,50.57
2022-09-09T08:47:58.648Z,50.02
2022-09-09T08:50:32.837Z,50.55
2022-09-09T08:53:17.748Z,50.45
2022-09-09T08:55:54.157Z,51.15
2022-09-09T08:58:33.654Z,52.75
2022-09-09T09:01:09.526Z,50.58
2022-09-09T09:04:05.446Z,52.13
2022-09-09T09:06:32.137Z,50.51
2022-09-09T09:09:02.662Z,49.47
2022-09-09T09:11:39.686Z,50.31
2022-09-09T09:14:24.600Z,50.62
2022-09-09T09:17:04.577Z,50.21
2022-09-09T09:19:34.805Z,52.35
2022-09-09T09:22:11.804Z,50.92
2022-09-09T09:24:47.085Z,49.85
2022-09-09T09:27:17.136Z,48.68
2022-09-09T09:30:18.186Z,47.95
2022-09-09T09:32:36.237Z,47.18
2022-09-09T09:35:10.808Z,46.26
2022-09-09T09:37:37.857Z,44.74
2022-09-09T09:40:16.801Z,43.66
2022-09-09T09:42:56.087Z,44.68
2022-09-09T09:46:13.893Z,44.82
2022-09-09T09:48:37.027Z,44.42
2022-09-09T09:51:17.193Z,44.21
2022-09-09T09:53:44.857Z,45.23
2022-09-09T09:56:15.406Z,42.98
2022-09-09T09:58:45.676Z,41.17
2022-09-09T10:01:32.485Z,42.95
2022-09-09T10:04:01.677Z,41.15
2022-09-09T10:06:36.737Z,39.51
2022-09-09T10:09:08.918Z,41.31
2022-09-09T10:11:41.337Z,38.87
2022-09-09T10:15:01.816Z,39.69
2022-09-09T10:18:00.642Z,39.96
2022-09-09T10:20:52.395Z,39.99
2022-09-09T10:23:45.372Z,41.08
2022-09-09T10:26:39.698Z,39.73
2022-09-09T10:29:32.828Z,40.12
2022-09-09T10:32:18.015Z,38.62
2022-09-09T10:34:51.146Z,38.52
2022-09-09T10:37:37.996Z,36.08
2022-09-09T10:40:34.657Z,35.19
2022-09-09T10:43:40.496Z,38.96
2022-09-09T10:46:23.241Z,39.06
2022-09-09T10:49:01.071Z,38.67
2022-09-09T10:52:07.829Z,37.81
2022-09-09T10:54:46.538Z,38.23
2022-09-09T10:57:23.836Z,40.39
2022-09-09T10:59:58.067Z,40.69
2022-09-09T11:02:30.268Z,38.27
2022-09-09T11:05:19.552Z,36.65
2022-09-09T11:08:06.355Z,39.55
2022-09-09T11:11:00.816Z,38.15
2022-09-09T11:13:33.177Z,38.52
2022-09-09T11:16:11.886Z,38.30
2022-09-09T11:18:42.647Z,39.20
2022-09-09T11:21:23.735Z,38.52
2022-09-09T11:24:03.396Z,39.51
2022-09-09T11:26:43.420Z,37.91
2022-09-09T11:29:49.001Z,38.22
2022-09-09T11:32:43.407Z,37.26
2022-09-09T11:35:33.812Z,37.82
2022-09-09T11:38:16.519Z,36.65
2022-09-09T11:40:44.620Z,37.37
2022-09-09T11:43:15.736Z,39.34
2022-09-09T11:45:44.675Z,41.15
2022-09-09T11:48:29.827Z,39.30
2022-09-09T11:51:16.932Z,37.95
2022-09-09T11:53:53.715Z,41.30
2022-09-09T11:56:33.415Z,39.11
2022-09-09T11:59:06.168Z,37.19
2022-09-09T12:01:44.716Z,38.38
2022-09-09T12:04:21.819Z,36.94
2022-09-09T12:07:18.197Z,38.91
2022-09-09T12:10:05.480Z,38.41
2022-09-09T12:12:43.020Z,38.59
2022-09-09T12:15:10.668Z,38.71
2022-09-09T12:17:46.017Z,39.75
2022-09-09T12:20:18.896Z,40.35
2022-09-09T12:22:51.387Z,38.98
2022-09-09T12:25:33.293Z,38.75
2022-09-09T12:28:16.479Z,38.91
2022-09-09T12:31:19.231Z,40.15
2022-09-09T12:33:48.428Z,38.20
2022-09-09T12:36:22.951Z,39.09
2022-09-09T12:38:51.737Z,39.80
2022-09-09T12:41:27.979Z,38.32
2022-09-09T12:44:10.088Z,37.66
2022-09-09T12:46:43.327Z,37.58
2022-09-09T12:49:40.469Z,37.98
2022-09-09T12:52:24.696Z,36.92
2022-09-09T12:54:53.080Z,37.31
2022-09-09T12:57:19.992Z,38.12
2022-09-09T12:59:46.986Z,37.63
2022-09-09T13:02:27.281Z,37.70
2022-09-09T13:04:55.347Z,37.63
2022-09-09T13:07:22.830Z,39.30
2022-09-09T13:09:51.331Z,38.25
2022-09-09T13:12:21.983Z,38.65
2022-09-09T13:14:52.127Z,39.76
2022-09-09T13:17:23.611Z,37.82
2022-09-09T13:19:53.987Z,36.95
2022-09-09T13:22:38.527Z,36.67
2022-09-09T13:25:11.187Z,37.59
2022-09-09T13:27:40.640Z,38.50
2022-09-09T13:30:26.300Z,38.60
2022-09-09T13:33:07.288Z,38.42
2022-09-09T13:35:34.427Z,37.87
2022-09-09T13:38:10.057Z,36.70
2022-09-09T13:40:39.346Z,38.29
2022-09-09T13:43:06.556Z,36.75
2022-09-09T13:45:35.937Z,37.40
2022-09-09T13:48:10.877Z,36.78
2022-09-09T13:50:37.863Z,37.64
2022-09-09T13:53:05.237Z,35.65
2022-09-09T13:55:32.226Z,37.01
2022-09-09T13:58:02.551Z,36.49
2022-09-09T14:00:34.838Z,35.67
2022-09-09T14:03:05.036Z,36.37
2022-09-09T14:05:34.384Z,36.00
2022-09-09T14:08:04.150Z,36.20
2022-09-09T14:10:30.977Z,35.39
2022-09-09T14:12:57.896Z,35.96
2022-09-09T14:15:24.561Z,36.16
2022-09-09T14:17:53.298Z,38.49
2022-09-09T14:20:20.399Z,38.46
2022-09-09T14:22:47.341Z,36.94
2022-09-09T14:25:14.659Z,37.11
2022-09-09T14:27:43.467Z,38.98
2022-09-09T14:30:10.735Z,38.06
2022-09-09T14:32:37.475Z,39.48
2022-09-09T14:35:04.784Z,40.72
2022-09-09T14:37:32.446Z,40.32
2022-09-09T14:39:59.562Z,39.77
2022-09-09T14:42:27.860Z,40.37
2022-09-09T14:44:54.918Z,38.66
2022-09-09T14:47:21.759Z,38.89
2022-09-09T14:49:50.657Z,40.69
2022-09-09T14:52:17.638Z,39.67
2022-09-09T14:54:44.293Z,40.11
2022-09-09T14:57:11.149Z,38.93
2022-09-09T14:59:37.868Z,39.84
2022-09-09T15:02:05.692Z,39.49
2022-09-09T15:04:32.641Z,41.00
2022-09-09T15:06:59.469Z,41.13
2022-09-09T15:09:26.367Z,40.74
2022-09-09T15:11:53.036Z,41.10
2022-09-09T15:14:23.834Z,40.99
2022-09-09T15:16:52.318Z,39.82
2022-09-09T15:19:19.006Z,40.68
2022-09-09T15:21:45.958Z,40.63
2022-09-09T15:24:14.782Z,40.85
2022-09-09T15:26:41.542Z,40.73
2022-09-09T15:29:09.433Z,41.48
2022-09-09T15:31:37.027Z,42.19
2022-09-09T15:34:06.726Z,41.09
2022-09-09T15:36:35.009Z,41.64
2022-09-09T15:39:03.839Z,41.75
2022-09-09T15:41:32.750Z,43.34
2022-09-09T15:44:00.340Z,41.04
2022-09-09T15:46:30.000Z,42.12
2022-09-09T15:48:59.477Z,41.87
2022-09-09T15:51:43.599Z,42.14
2022-09-09T15:54:13.472Z,42.32
2022-09-09T15:56:40.496Z,43.85
2022-09-09T15:59:07.357Z,43.73
2022-09-09T16:01:34.718Z,43.64
2022-09-09T16:04:01.658Z,45.00
2022-09-09T16:06:30.144Z,45.09
2022-09-09T16:08:59.075Z,45.95
2022-09-09T16:11:28.703Z,46.21
2022-09-09T16:13:56.631Z,46.66
2022-09-09T16:16:26.456Z,45.94
2022-09-09T16:18:56.497Z,46.92
2022-09-09T16:21:31.738Z,46.57
2022-09-09T16:24:00.776Z,47.36
2022-09-09T16:26:31.759Z,47.67
2022-09-09T16:28:59.925Z,47.45
2022-09-09T16:31:28.434Z,48.62
2022-09-09T16:33:55.641Z,47.89
2022-09-09T16:36:27.407Z,48.03
2022-09-09T16:39:01.892Z,49.40
2022-09-09T16:41:30.530Z,48.28
2022-09-09T16:44:03.487Z,47.58
2022-09-09T16:46:32.396Z,48.21
2022-09-09T16:49:00.663Z,47.81
2022-09-09T16:51:30.539Z,48.12
2022-09-09T16:53:59.648Z,48.14
2022-09-09T16:56:28.257Z,48.43
2022-09-09T16:59:00.503Z,48.41
2022-09-09T17:01:30.227Z,49.00
2022-09-09T17:04:02.388Z,48.86
2022-09-09T17:06:30.494Z,49.07
2022-09-09T17:09:02.512Z,49.47
2022-09-09T17:11:29.885Z,49.90
2022-09-09T17:13:59.181Z,49.72
2022-09-09T17:16:28.991Z,49.91
2022-09-09T17:18:57.344Z,50.52
2022-09-09T17:21:28.476Z,50.92
2022-09-09T17:23:56.676Z,51.35
2022-09-09T17:26:27.740Z,51.12
2022-09-09T17:28:59.364Z,51.43
2022-09-09T17:31:28.737Z,51.64
2022-09-09T17:33:56.459Z,52.31
2022-09-09T17:36:32.335Z,53.57
2022-09-09T17:39:00.876Z,53.36
2022-09-09T17:41:30.606Z,53.99
2022-09-09T17:43:58.385Z,54.09
2022-09-09T17:46:29.114Z,54.83
2022-09-09T17:48:58.575Z,54.68
2022-09-09T17:51:29.007Z,53.88
2022-09-09T17:53:59.518Z,54.91
2022-09-09T17:56:31.554Z,53.37
2022-09-09T17:58:59.889Z,53.24
2022-09-09T18:01:29.928Z,54.20
2022-09-09T18:03:57.890Z,53.91
2022-09-09T18:06:31.996Z,54.05
2022-09-09T18:09:01.090Z,54.39
2022-09-09T18:11:30.456Z,54.72
2022-09-09T18:14:00.700Z,54.75
2022-09-09T18:16:31.029Z,54.29
2022-09-09T18:19:03.576Z,54.25
2022-09-09T18:21:33.229Z,53.95
2022-09-09T18:24:01.715Z,55.52
2022-09-09T18:26:28.663Z,56.18
2022-09-09T18:28:58.877Z,57.08
2022-09-09T18:31:28.156Z,56.82
2022-09-09T18:33:57.517Z,55.58
2022-09-09T18:36:27.107Z,55.58
2022-09-09T18:38:56.769Z,55.78
2022-09-09T18:41:26.699Z,56.90
2022-09-09T18:43:55.657Z,56.15
2022-09-09T18:46:23.821Z,55.99
2022-09-09T18:48:51.730Z,56.53
2022-09-09T18:51:23.906Z,56.09
2022-09-09T18:53:52.608Z,56.64
2022-09-09T18:56:19.824Z,57.72
2022-09-09T18:58:48.777Z,58.02
2022-09-09T19:01:16.331Z,58.66
2022-09-09T19:03:43.476Z,58.55
2022-09-09T19:06:16.846Z,59.53
2022-09-09T19:08:45.542Z,59.84
2022-09-09T19:11:16.388Z,60.61
2022-09-09T19:13:43.886Z,61.65
2022-09-09T19:16:14.583Z,61.51
2022-09-09T19:18:45.087Z,61.07
2022-09-09T19:21:22.849Z,62.37
2022-09-09T19:24:01.332Z,62.28
2022-09-09T19:26:40.928Z,62.43
2022-09-09T19:29:10.335Z,63.43
2022-09-09T19:31:38.917Z,62.22
2022-09-09T19:34:05.621Z,62.51
2022-09-09T19:36:33.009Z,61.84
2022-09-09T19:39:00.494Z,61.06
2022-09-09T19:41:28.613Z,61.94
2022-09-09T19:44:06.146Z,62.86
2022-09-09T19:46:37.921Z,62.92
2022-09-09T19:49:06.319Z,66.11
2022-09-09T19:51:33.597Z,64.13
2022-09-09T19:54:17.093Z,64.13
2022-09-09T19:56:44.370Z,64.73
2022-09-09T19:59:13.278Z,64.21
2022-09-09T20:01:44.627Z,62.78
2022-09-09T20:04:12.901Z,62.17
2022-09-09T20:06:41.796Z,60.93
2022-09-09T20:09:12.228Z,60.96
2022-09-09T20:11:39.438Z,61.23
2022-09-09T20:14:06.838Z,64.54
2022-09-09T20:16:34.447Z,64.08
2022-09-09T20:19:03.817Z,65.34
2022-09-09T20:21:33.833Z,65.05
2022-09-09T20:24:02.976Z,65.34
2022-09-09T20:26:35.183Z,64.77
2022-09-09T20:29:05.725Z,64.61
2022-09-09T20:31:40.207Z,64.05
2022-09-09T20:34:10.446Z,64.85
2022-09-09T20:36:38.998Z,64.73
2022-09-09T20:39:16.687Z,65.09
2022-09-09T20:41:45.499Z,66.66
2022-09-09T20:44:17.971Z,68.83
2022-09-09T20:46:50.119Z,68.34
2022-09-09T20:49:20.117Z,68.53
2022-09-09T20:51:49.793Z,70.16
2022-09-09T20:54:23.553Z,67.43
2022-09-09T20:56:51.888Z,68.09
2022-09-09T20:59:22.048Z,66.68
2022-09-09T21:01:49.154Z,68.50
2022-09-09T21:04:18.128Z,71.75
2022-09-09T21:06:45.891Z,70.90
2022-09-09T21:09:13.910Z,68.45
2022-09-09T21:11:40.848Z,67.41
2022-09-09T21:14:07.678Z,66.22
2022-09-09T21:16:34.757Z,66.10
2022-09-09T21:19:01.587Z,66.37
2022-09-09T21:21:28.315Z,66.50
2022-09-09T21:23:57.504Z,66.08
2022-09-09T21:26:25.282Z,66.71
2022-09-09T21:28:52.316Z,66.65
2022-09-09T21:31:26.956Z,65.82
2022-09-09T21:33:54.366Z,66.37
2022-09-09T21:36:21.168Z,66.71
2022-09-09T21:38:47.877Z,66.83
2022-09-09T21:41:16.287Z,66.72
2022-09-09T21:43:45.256Z,67.11
2022-09-09T21:46:15.111Z,67.34
2022-09-09T21:48:41.887Z,66.86
2022-09-09T21:51:11.404Z,66.64
2022-09-09T21:53:39.702Z,67.45
2022-09-09T21:56:10.427Z,66.44
2022-09-09T21:58:37.871Z,65.88
2022-09-09T22:01:18.137Z,66.24
2022-09-09T22:03:45.541Z,65.83
2022-09-09T22:06:14.925Z,65.97
2022-09-09T22:08:41.808Z,67.78
2022-09-09T22:11:16.538Z,69.21
2022-09-09T22:13:46.192Z,68.44
2022-09-09T22:16:15.150Z,69.31
2022-09-09T22:18:42.021Z,70.40
2022-09-09T22:21:11.806Z,69.11
2022-09-09T22:23:38.525Z,68.81
2022-09-09T22:26:05.919Z,69.31
2022-09-09T22:28:34.282Z,69.08
2022-09-09T22:31:01.532Z,68.42
2022-09-09T22:33:28.447Z,67.88
2022-09-09T22:35:55.219Z,69.04
2022-09-09T22:38:22.457Z,70.34
2022-09-09T22:40:49.757Z,69.66
2022-09-09T22:43:19.780Z,68.60
2022-09-09T22:45:47.750Z,68.72
2022-09-09T22:48:15.729Z,71.15
2022-09-09T22:50:43.008Z,71.46
2022-09-09T22:53:13.888Z,72.17
2022-09-09T22:55:41.221Z,72.17
2022-09-09T22:58:08.137Z,72.43
2022-09-09T23:00:35.320Z,73.82
2022-09-09T23:03:02.037Z,73.31
2022-09-09T23:05:28.713Z,74.18
2022-09-09T23:07:58.572Z,72.30
2022-09-09T23:10:25.654Z,73.39
2022-09-09T23:12:52.516Z,71.63
2022-09-09T23:15:19.977Z,71.57
2022-09-09T23:17:46.873Z,72.18
2022-09-09T23:20:13.773Z,71.33
2022-09-09T23:22:40.679Z,72.01
2022-09-09T23:25:08.026Z,72.21
2022-09-09T23:27:37.465Z,73.80
2022-09-09T23:30:08.232Z,74.12
2022-09-09T23:32:34.928Z,73.32
2022-09-09T23:35:01.788Z,73.15
2022-09-09T23:37:29.795Z,72.11
2022-09-09T23:39:56.594Z,71.47
2022-09-09T23:42:23.948Z,71.84
2022-09-09T23:44:51.150Z,72.21
2022-09-09T23:47:17.876Z,73.08
2022-09-09T23:49:44.592Z,72.31
2022-09-09T23:52:11.432Z,70.84
2022-09-09T23:54:38.104Z,74.23
2022-09-09T23:57:04.828Z,73.92
2022-09-09T23:59:31.675Z,73.71
